sensor_id;sensor_type;location;lat;lon;timestamp;temperature;humidity
3940;DHT22;1984;48.312;9.244;2022-09-30T00:00:17;8.60;99.90
3940;DHT22;1984;48.312;9.244;2022-09-30T00:02:43;8.60;99.90
3940;DHT22;1984;48.312;9.244;2022-09-30T00:05:08;8.70;99.90
3940;DHT22;1984;48.312;9.244;2022-09-30T00:07:34;8.70;99.90
3940;DHT22;1984;48.312;9.244;2022-09-30T00:09:59;8.70;99.90
3940;DHT22;1984;48.312;9.244;2022-09-30T00:12:25;8.60;99.90
3940;DHT22;1984;48.312;9.244;2022-09-30T00:14:52;8.60;99.90
3940;DHT22;1984;48.312;9.244;2022-09-30T00:17:17;8.60;99.90
3940;DHT22;1984;48.312;9.244;2022-09-30T00:19:43;8.60;99.90
3940;DHT22;1984;48.312;9.244;2022-09-30T00:22:09;8.60;99.90
3940;DHT22;1984;48.312;9.244;2022-09-30T00:24:35;8.60;99.90
3940;DHT22;1984;48.312;9.244;2022-09-30T00:27:00;8.60;99.90
3940;DHT22;1984;48.312;9.244;2022-09-30T00:29:26;8.60;99.90
3940;DHT22;1984;48.312;9.244;2022-09-30T00:31:51;8.60;99.90
3940;DHT22;1984;48.312;9.244;2022-09-30T00:34:17;8.50;99.90
3940;DHT22;1984;48.312;9.244;2022-09-30T00:36:46;8.50;99.90
3940;DHT22;1984;48.312;9.244;2022-09-30T00:39:18;8.50;99.90
3940;DHT22;1984;48.312;9.244;2022-09-30T00:41:45;8.50;99.90
3940;DHT22;1984;48.312;9.244;2022-09-30T00:44:44;8.50;99.90
3940;DHT22;1984;48.312;9.244;2022-09-30T00:47:35;8.60;99.90
3940;DHT22;1984;48.312;9.244;2022-09-30T00:50:39;8.60;99.90
3940;DHT22;1984;48.312;9.244;2022-09-30T00:55:49;8.50;99.90
3940;DHT22;1984;48.312;9.244;2022-09-30T00:58:41;8.40;99.90
3940;DHT22;1984;48.312;9.244;2022-09-30T01:01:09;8.50;99.90
3940;DHT22;1984;48.312;9.244;2022-09-30T01:03:39;8.50;99.90
3940;DHT22;1984;48.312;9.244;2022-09-30T01:06:05;8.50;99.90
3940;DHT22;1984;48.312;9.244;2022-09-30T01:08:34;8.40;99.90
3940;DHT22;1984;48.312;9.244;2022-09-30T01:11:00;8.40;99.90
3940;DHT22;1984;48.312;9.244;2022-09-30T01:13:27;8.40;99.90
3940;DHT22;1984;48.312;9.244;2022-09-30T01:19:01;8.30;99.90
3940;DHT22;1984;48.312;9.244;2022-09-30T01:26:56;8.20;99.90
3940;DHT22;1984;48.312;9.244;2022-09-30T01:32:18;8.20;99.90
3940;DHT22;1984;48.312;9.244;2022-09-30T01:41:10;7.90;99.90
3940;DHT22;1984;48.312;9.244;2022-09-30T01:52:06;7.90;99.90
3940;DHT22;1984;48.312;9.244;2022-09-30T01:54:51;7.90;99.90
3940;DHT22;1984;48.312;9.244;2022-09-30T01:57:32;7.90;99.90
3940;DHT22;1984;48.312;9.244;2022-09-30T02:02:35;7.90;99.90
3940;DHT22;1984;48.312;9.244;2022-09-30T02:05:13;7.90;99.90
3940;DHT22;1984;48.312;9.244;2022-09-30T02:07:47;8.00;99.90
3940;DHT22;1984;48.312;9.244;2022-09-30T02:10:49;7.90;99.90
3940;DHT22;1984;48.312;9.244;2022-09-30T02:15:48;8.00;99.90
3940;DHT22;1984;48.312;9.244;2022-09-30T02:18:21;8.00;99.90
3940;DHT22;1984;48.312;9.244;2022-09-30T02:20:53;8.00;99.90
3940;DHT22;1984;48.312;9.244;2022-09-30T02:23:30;8.00;99.90
3940;DHT22;1984;48.312;9.244;2022-09-30T02:26:07;8.00;99.90
3940;DHT22;1984;48.312;9.244;2022-09-30T02:28:40;8.10;99.90
3940;DHT22;1984;48.312;9.244;2022-09-30T02:31:08;8.00;99.90
3940;DHT22;1984;48.312;9.244;2022-09-30T02:33:43;8.00;99.90
3940;DHT22;1984;48.312;9.244;2022-09-30T02:36:19;8.00;99.90
3940;DHT22;1984;48.312;9.244;2022-09-30T02:38:49;8.00;99.90
3940;DHT22;1984;48.312;9.244;2022-09-30T02:41:23;8.00;99.90
3940;DHT22;1984;48.312;9.244;2022-09-30T02:43:51;8.00;99.90
3940;DHT22;1984;48.312;9.244;2022-09-30T02:46:49;7.90;99.90
3940;DHT22;1984;48.312;9.244;2022-09-30T02:49:41;7.90;99.90
3940;DHT22;1984;48.312;9.244;2022-09-30T02:52:20;8.00;99.90
3940;DHT22;1984;48.312;9.244;2022-09-30T02:55:07;8.00;99.90
3940;DHT22;1984;48.312;9.244;2022-09-30T03:00:12;8.00;99.90
3940;DHT22;1984;48.312;9.244;2022-09-30T03:02:39;8.00;99.90
3940;DHT22;1984;48.312;9.244;2022-09-30T03:05:05;8.00;99.90
3940;DHT22;1984;48.312;9.244;2022-09-30T03:07:32;8.00;99.90
3940;DHT22;1984;48.312;9.244;2022-09-30T03:09:58;8.00;99.90
3940;DHT22;1984;48.312;9.244;2022-09-30T03:15:29;8.00;99.90
3940;DHT22;1984;48.312;9.244;2022-09-30T03:20:50;7.90;99.90
3940;DHT22;1984;48.312;9.244;2022-09-30T03:26:35;7.90;99.90
3940;DHT22;1984;48.312;9.244;2022-09-30T03:29:09;7.90;99.90
3940;DHT22;1984;48.312;9.244;2022-09-30T03:37:02;7.70;99.90
3940;DHT22;1984;48.312;9.244;2022-09-30T03:42:28;7.70;99.90
3940;DHT22;1984;48.312;9.244;2022-09-30T03:45:07;7.80;99.90
3940;DHT22;1984;48.312;9.244;2022-09-30T03:47:43;7.70;99.90
3940;DHT22;1984;48.312;9.244;2022-09-30T03:50:13;7.70;99.90
3940;DHT22;1984;48.312;9.244;2022-09-30T03:52:39;7.60;99.90
3940;DHT22;1984;48.312;9.244;2022-09-30T03:55:06;7.50;99.90
3940;DHT22;1984;48.312;9.244;2022-09-30T03:57:36;7.60;99.90
3940;DHT22;1984;48.312;9.244;2022-09-30T04:00:03;7.40;99.90
3940;DHT22;1984;48.312;9.244;2022-09-30T04:02:29;7.30;99.90
3940;DHT22;1984;48.312;9.244;2022-09-30T04:04:55;7.20;99.90
3940;DHT22;1984;48.312;9.244;2022-09-30T04:07:20;7.10;99.90
3940;DHT22;1984;48.312;9.244;2022-09-30T04:09:46;7.10;99.90
3940;DHT22;1984;48.312;9.244;2022-09-30T04:12:12;7.20;99.90
3940;DHT22;1984;48.312;9.244;2022-09-30T04:14:37;7.20;99.90
3940;DHT22;1984;48.312;9.244;2022-09-30T04:17:04;7.30;99.90
3940;DHT22;1984;48.312;9.244;2022-09-30T04:19:30;7.20;99.90
3940;DHT22;1984;48.312;9.244;2022-09-30T04:21:55;7.20;99.90
3940;DHT22;1984;48.312;9.244;2022-09-30T04:24:22;7.30;99.90
3940;DHT22;1984;48.312;9.244;2022-09-30T04:26:49;7.20;99.90
3940;DHT22;1984;48.312;9.244;2022-09-30T04:29:14;7.30;99.90
3940;DHT22;1984;48.312;9.244;2022-09-30T04:31:40;7.30;99.90
3940;DHT22;1984;48.312;9.244;2022-09-30T04:34:06;7.30;99.90
3940;DHT22;1984;48.312;9.244;2022-09-30T04:36:32;7.30;99.90
3940;DHT22;1984;48.312;9.244;2022-09-30T04:38:58;7.30;99.90
3940;DHT22;1984;48.312;9.244;2022-09-30T04:41:23;7.30;99.90
3940;DHT22;1984;48.312;9.244;2022-09-30T04:43:49;7.20;99.90
3940;DHT22;1984;48.312;9.244;2022-09-30T04:46:16;7.20;99.90
3940;DHT22;1984;48.312;9.244;2022-09-30T04:48:45;7.20;99.90
3940;DHT22;1984;48.312;9.244;2022-09-30T04:51:19;7.10;99.90
3940;DHT22;1984;48.312;9.244;2022-09-30T04:53:45;7.10;99.90
3940;DHT22;1984;48.312;9.244;2022-09-30T04:56:11;7.00;99.90
3940;DHT22;1984;48.312;9.244;2022-09-30T04:58:37;7.00;99.90
3940;DHT22;1984;48.312;9.244;2022-09-30T05:01:07;7.00;99.90
3940;DHT22;1984;48.312;9.244;2022-09-30T05:03:33;7.00;99.90
3940;DHT22;1984;48.312;9.244;2022-09-30T05:05:59;7.00;99.90
3940;DHT22;1984;48.312;9.244;2022-09-30T05:08:25;7.00;99.90
3940;DHT22;1984;48.312;9.244;2022-09-30T05:10:59;7.00;99.90
3940;DHT22;1984;48.312;9.244;2022-09-30T05:13:30;7.00;99.90
3940;DHT22;1984;48.312;9.244;2022-09-30T05:15:56;7.00;99.90
3940;DHT22;1984;48.312;9.244;2022-09-30T05:18:22;7.00;99.90
3940;DHT22;1984;48.312;9.244;2022-09-30T05:20:49;7.00;99.90
3940;DHT22;1984;48.312;9.244;2022-09-30T05:23:15;7.00;99.90
3940;DHT22;1984;48.312;9.244;2022-09-30T05:25:41;7.00;99.90
3940;DHT22;1984;48.312;9.244;2022-09-30T05:28:06;7.00;99.90
3940;DHT22;1984;48.312;9.244;2022-09-30T05:30:33;7.00;99.90
3940;DHT22;1984;48.312;9.244;2022-09-30T05:32:58;7.00;99.90
3940;DHT22;1984;48.312;9.244;2022-09-30T05:35:24;7.00;99.90
3940;DHT22;1984;48.312;9.244;2022-09-30T05:37:49;7.00;99.90
3940;DHT22;1984;48.312;9.244;2022-09-30T05:40:15;7.00;99.90
3940;DHT22;1984;48.312;9.244;2022-09-30T05:42:40;7.00;99.90
3940;DHT22;1984;48.312;9.244;2022-09-30T05:45:06;7.00;99.90
3940;DHT22;1984;48.312;9.244;2022-09-30T05:47:33;7.00;99.90
3940;DHT22;1984;48.312;9.244;2022-09-30T05:49:58;6.90;99.90
3940;DHT22;1984;48.312;9.244;2022-09-30T05:52:24;6.80;99.90
3940;DHT22;1984;48.312;9.244;2022-09-30T05:54:50;6.70;99.90
3940;DHT22;1984;48.312;9.244;2022-09-30T05:57:16;6.70;99.90
3940;DHT22;1984;48.312;9.244;2022-09-30T05:59:42;6.60;99.90
3940;DHT22;1984;48.312;9.244;2022-09-30T06:02:09;6.70;99.90
3940;DHT22;1984;48.312;9.244;2022-09-30T06:04:35;6.70;99.90
3940;DHT22;1984;48.312;9.244;2022-09-30T06:07:01;6.70;99.90
3940;DHT22;1984;48.312;9.244;2022-09-30T06:09:26;6.80;99.90
3940;DHT22;1984;48.312;9.244;2022-09-30T06:11:52;6.90;99.90
3940;DHT22;1984;48.312;9.244;2022-09-30T06:14:22;6.90;99.90
3940;DHT22;1984;48.312;9.244;2022-09-30T06:16:48;7.00;99.90
3940;DHT22;1984;48.312;9.244;2022-09-30T06:19:14;7.00;99.90
3940;DHT22;1984;48.312;9.244;2022-09-30T06:21:39;7.10;99.90
3940;DHT22;1984;48.312;9.244;2022-09-30T06:24:05;7.10;99.90
3940;DHT22;1984;48.312;9.244;2022-09-30T06:26:33;7.20;99.90
3940;DHT22;1984;48.312;9.244;2022-09-30T06:28:58;7.30;99.90
3940;DHT22;1984;48.312;9.244;2022-09-30T06:31:24;7.50;99.90
3940;DHT22;1984;48.312;9.244;2022-09-30T06:33:51;7.50;99.90
3940;DHT22;1984;48.312;9.244;2022-09-30T06:36:17;7.60;99.90
3940;DHT22;1984;48.312;9.244;2022-09-30T06:38:43;7.70;99.90
3940;DHT22;1984;48.312;9.244;2022-09-30T06:41:09;7.70;99.90
3940;DHT22;1984;48.312;9.244;2022-09-30T06:43:35;7.70;99.90
3940;DHT22;1984;48.312;9.244;2022-09-30T06:46:01;7.70;99.90
3940;DHT22;1984;48.312;9.244;2022-09-30T06:48:26;7.80;99.90
3940;DHT22;1984;48.312;9.244;2022-09-30T06:50:57;8.00;99.90
3940;DHT22;1984;48.312;9.244;2022-09-30T06:53:22;8.10;99.90
3940;DHT22;1984;48.312;9.244;2022-09-30T06:55:54;8.10;99.90
3940;DHT22;1984;48.312;9.244;2022-09-30T06:58:20;8.10;99.90
3940;DHT22;1984;48.312;9.244;2022-09-30T07:00:58;8.10;99.90
3940;DHT22;1984;48.312;9.244;2022-09-30T07:03:27;8.20;99.90
3940;DHT22;1984;48.312;9.244;2022-09-30T07:06:01;8.20;99.90
3940;DHT22;1984;48.312;9.244;2022-09-30T07:08:29;8.20;99.90
3940;DHT22;1984;48.312;9.244;2022-09-30T07:10:56;8.30;99.90
3940;DHT22;1984;48.312;9.244;2022-09-30T07:13:22;8.30;99.90
3940;DHT22;1984;48.312;9.244;2022-09-30T07:15:47;8.30;99.90
3940;DHT22;1984;48.312;9.244;2022-09-30T07:18:14;8.20;99.90
3940;DHT22;1984;48.312;9.244;2022-09-30T07:20:50;8.20;99.90
3940;DHT22;1984;48.312;9.244;2022-09-30T07:23:16;8.10;99.90
3940;DHT22;1984;48.312;9.244;2022-09-30T07:26:08;8.20;99.90
3940;DHT22;1984;48.312;9.244;2022-09-30T07:28:35;8.20;99.90
3940;DHT22;1984;48.312;9.244;2022-09-30T07:31:08;8.30;99.90
3940;DHT22;1984;48.312;9.244;2022-09-30T07:33:36;8.40;99.90
3940;DHT22;1984;48.312;9.244;2022-09-30T07:36:04;8.50;99.90
3940;DHT22;1984;48.312;9.244;2022-09-30T07:38:34;8.50;99.90
3940;DHT22;1984;48.312;9.244;2022-09-30T07:41:07;8.70;99.90
3940;DHT22;1984;48.312;9.244;2022-09-30T07:43:34;8.80;99.90
3940;DHT22;1984;48.312;9.244;2022-09-30T07:46:18;8.80;99.90
3940;DHT22;1984;48.312;9.244;2022-09-30T07:48:51;9.00;99.90
3940;DHT22;1984;48.312;9.244;2022-09-30T07:51:27;9.20;99.90
3940;DHT22;1984;48.312;9.244;2022-09-30T07:54:04;9.40;99.90
3940;DHT22;1984;48.312;9.244;2022-09-30T07:56:33;9.60;99.90
3940;DHT22;1984;48.312;9.244;2022-09-30T07:59:01;9.70;99.90
3940;DHT22;1984;48.312;9.244;2022-09-30T08:01:27;9.90;99.90
3940;DHT22;1984;48.312;9.244;2022-09-30T08:03:57;10.10;99.90
3940;DHT22;1984;48.312;9.244;2022-09-30T08:06:23;10.20;99.90
3940;DHT22;1984;48.312;9.244;2022-09-30T08:08:52;10.40;99.90
3940;DHT22;1984;48.312;9.244;2022-09-30T08:11:18;10.50;99.90
3940;DHT22;1984;48.312;9.244;2022-09-30T08:13:48;10.50;99.90
3940;DHT22;1984;48.312;9.244;2022-09-30T08:16:14;10.40;99.90
3940;DHT22;1984;48.312;9.244;2022-09-30T08:18:39;10.30;99.90
3940;DHT22;1984;48.312;9.244;2022-09-30T08:21:05;10.30;99.90
3940;DHT22;1984;48.312;9.244;2022-09-30T08:23:32;10.30;99.90
3940;DHT22;1984;48.312;9.244;2022-09-30T08:26:06;10.50;99.90
3940;DHT22;1984;48.312;9.244;2022-09-30T08:28:32;10.60;99.90
3940;DHT22;1984;48.312;9.244;2022-09-30T08:31:08;10.90;99.90
3940;DHT22;1984;48.312;9.244;2022-09-30T08:33:34;11.00;99.90
3940;DHT22;1984;48.312;9.244;2022-09-30T08:36:05;11.20;99.90
3940;DHT22;1984;48.312;9.244;2022-09-30T08:38:32;11.40;99.90
3940;DHT22;1984;48.312;9.244;2022-09-30T08:51:59;11.70;99.90
3940;DHT22;1984;48.312;9.244;2022-09-30T08:54:33;11.70;99.90
3940;DHT22;1984;48.312;9.244;2022-09-30T08:57:01;11.60;99.90
3940;DHT22;1984;48.312;9.244;2022-09-30T08:59:41;11.60;99.90
3940;DHT22;1984;48.312;9.244;2022-09-30T09:04:44;11.90;99.90
3940;DHT22;1984;48.312;9.244;2022-09-30T09:12:41;13.60;99.90
3940;DHT22;1984;48.312;9.244;2022-09-30T09:15:39;14.30;99.90
3940;DHT22;1984;48.312;9.244;2022-09-30T09:23:15;15.30;99.90
3940;DHT22;1984;48.312;9.244;2022-09-30T09:25:41;15.40;99.90
3940;DHT22;1984;48.312;9.244;2022-09-30T09:30:56;16.20;99.90
3940;DHT22;1984;48.312;9.244;2022-09-30T09:33:27;16.40;99.90
3940;DHT22;1984;48.312;9.244;2022-09-30T09:36:18;16.40;99.90
3940;DHT22;1984;48.312;9.244;2022-09-30T09:38:55;16.60;99.90
3940;DHT22;1984;48.312;9.244;2022-09-30T09:42:02;16.80;99.90
3940;DHT22;1984;48.312;9.244;2022-09-30T09:47:21;17.80;99.90
3940;DHT22;1984;48.312;9.244;2022-09-30T09:49:54;18.50;99.90
3940;DHT22;1984;48.312;9.244;2022-09-30T09:55:09;19.30;99.90
3940;DHT22;1984;48.312;9.244;2022-09-30T09:57:36;19.60;99.90
3940;DHT22;1984;48.312;9.244;2022-09-30T10:00:10;19.80;99.90
3940;DHT22;1984;48.312;9.244;2022-09-30T10:03:04;20.70;99.90
3940;DHT22;1984;48.312;9.244;2022-09-30T10:05:34;20.90;99.90
3940;DHT22;1984;48.312;9.244;2022-09-30T10:08:21;20.60;99.90
3940;DHT22;1984;48.312;9.244;2022-09-30T10:10:52;21.10;99.90
3940;DHT22;1984;48.312;9.244;2022-09-30T10:13:21;21.50;99.90
3940;DHT22;1984;48.312;9.244;2022-09-30T10:15:55;21.40;99.90
3940;DHT22;1984;48.312;9.244;2022-09-30T10:18:32;20.70;99.90
3940;DHT22;1984;48.312;9.244;2022-09-30T10:21:18;20.20;99.80
3940;DHT22;1984;48.312;9.244;2022-09-30T10:23:44;19.50;99.90
3940;DHT22;1984;48.312;9.244;2022-09-30T10:28:56;18.40;99.90
3940;DHT22;1984;48.312;9.244;2022-09-30T10:31:40;19.10;99.90
3940;DHT22;1984;48.312;9.244;2022-09-30T10:34:10;19.80;99.90
3940;DHT22;1984;48.312;9.244;2022-09-30T10:36:41;20.20;99.90
3940;DHT22;1984;48.312;9.244;2022-09-30T10:39:26;20.90;99.90
3940;DHT22;1984;48.312;9.244;2022-09-30T10:42:01;21.40;99.80
3940;DHT22;1984;48.312;9.244;2022-09-30T10:44:28;21.60;98.30
3940;DHT22;1984;48.312;9.244;2022-09-30T10:46:59;20.90;98.90
3940;DHT22;1984;48.312;9.244;2022-09-30T10:52:00;19.40;99.90
3940;DHT22;1984;48.312;9.244;2022-09-30T10:57:08;18.30;99.90
3940;DHT22;1984;48.312;9.244;2022-09-30T10:59:39;18.10;99.90
3940;DHT22;1984;48.312;9.244;2022-09-30T11:02:19;18.00;99.90
3940;DHT22;1984;48.312;9.244;2022-09-30T11:05:21;18.10;99.90
3940;DHT22;1984;48.312;9.244;2022-09-30T11:18:40;18.10;99.90
3940;DHT22;1984;48.312;9.244;2022-09-30T11:21:20;18.10;99.90
3940;DHT22;1984;48.312;9.244;2022-09-30T11:24:05;17.50;99.90
3940;DHT22;1984;48.312;9.244;2022-09-30T11:29:39;16.60;99.90
3940;DHT22;1984;48.312;9.244;2022-09-30T11:32:29;16.40;99.90
3940;DHT22;1984;48.312;9.244;2022-09-30T11:38:01;15.90;99.90
3940;DHT22;1984;48.312;9.244;2022-09-30T11:40:36;15.80;99.90
3940;DHT22;1984;48.312;9.244;2022-09-30T11:43:23;15.60;99.90
3940;DHT22;1984;48.312;9.244;2022-09-30T11:46:17;15.10;99.90
3940;DHT22;1984;48.312;9.244;2022-09-30T11:57:31;15.10;99.90
3940;DHT22;1984;48.312;9.244;2022-09-30T12:00:14;15.10;99.90
3940;DHT22;1984;48.312;9.244;2022-09-30T12:02:50;15.20;99.90
3940;DHT22;1984;48.312;9.244;2022-09-30T12:05:25;15.30;99.90
3940;DHT22;1984;48.312;9.244;2022-09-30T12:08:05;15.40;99.90
3940;DHT22;1984;48.312;9.244;2022-09-30T12:10:48;15.30;99.90
3940;DHT22;1984;48.312;9.244;2022-09-30T12:13:21;15.20;99.90
3940;DHT22;1984;48.312;9.244;2022-09-30T12:15:48;14.90;99.90
3940;DHT22;1984;48.312;9.244;2022-09-30T12:18:19;14.60;99.90
3940;DHT22;1984;48.312;9.244;2022-09-30T12:21:00;14.50;99.90
3940;DHT22;1984;48.312;9.244;2022-09-30T12:23:30;14.40;99.90
3940;DHT22;1984;48.312;9.244;2022-09-30T12:25:58;14.00;99.90
3940;DHT22;1984;48.312;9.244;2022-09-30T12:31:39;13.40;99.90
3940;DHT22;1984;48.312;9.244;2022-09-30T12:47:52;13.10;99.90
3940;DHT22;1984;48.312;9.244;2022-09-30T12:50:21;12.90;99.90
3940;DHT22;1984;48.312;9.244;2022-09-30T12:52:49;12.80;99.90
3940;DHT22;1984;48.312;9.244;2022-09-30T12:55:22;12.90;99.90
3940;DHT22;1984;48.312;9.244;2022-09-30T12:57:50;13.00;99.90
3940;DHT22;1984;48.312;9.244;2022-09-30T13:00:20;12.90;99.90
3940;DHT22;1984;48.312;9.244;2022-09-30T13:02:55;12.80;99.90
3940;DHT22;1984;48.312;9.244;2022-09-30T13:13:25;12.70;99.90
3940;DHT22;1984;48.312;9.244;2022-09-30T13:15:56;12.90;99.90
3940;DHT22;1984;48.312;9.244;2022-09-30T13:23:42;12.90;99.90
3940;DHT22;1984;48.312;9.244;2022-09-30T13:28:53;12.90;99.90
3940;DHT22;1984;48.312;9.244;2022-09-30T13:31:23;13.00;99.90
3940;DHT22;1984;48.312;9.244;2022-09-30T13:36:28;13.30;99.90
3940;DHT22;1984;48.312;9.244;2022-09-30T13:39:18;13.40;99.90
3940;DHT22;1984;48.312;9.244;2022-09-30T13:44:34;13.70;99.90
3940;DHT22;1984;48.312;9.244;2022-09-30T13:47:39;13.80;99.90
3940;DHT22;1984;48.312;9.244;2022-09-30T13:52:56;13.80;99.90
3940;DHT22;1984;48.312;9.244;2022-09-30T13:55:31;13.90;99.90
3940;DHT22;1984;48.312;9.244;2022-09-30T14:01:08;14.20;99.90
3940;DHT22;1984;48.312;9.244;2022-09-30T14:04:04;14.40;99.90
3940;DHT22;1984;48.312;9.244;2022-09-30T14:09:36;14.50;99.90
3940;DHT22;1984;48.312;9.244;2022-09-30T14:22:45;14.40;99.90
3940;DHT22;1984;48.312;9.244;2022-09-30T14:25:16;14.40;99.90
3940;DHT22;1984;48.312;9.244;2022-09-30T14:28:01;14.40;99.90
3940;DHT22;1984;48.312;9.244;2022-09-30T14:30:33;14.30;99.90
3940;DHT22;1984;48.312;9.244;2022-09-30T14:33:17;14.30;99.90
3940;DHT22;1984;48.312;9.244;2022-09-30T14:35:44;14.10;99.90
3940;DHT22;1984;48.312;9.244;2022-09-30T14:38:17;14.10;99.90
3940;DHT22;1984;48.312;9.244;2022-09-30T14:40:52;14.00;99.90
3940;DHT22;1984;48.312;9.244;2022-09-30T14:43:21;13.90;99.90
3940;DHT22;1984;48.312;9.244;2022-09-30T14:45:55;13.90;99.90
3940;DHT22;1984;48.312;9.244;2022-09-30T14:48:28;14.20;99.90
3940;DHT22;1984;48.312;9.244;2022-09-30T14:53:34;14.20;99.90
3940;DHT22;1984;48.312;9.244;2022-09-30T14:56:01;14.20;99.90
3940;DHT22;1984;48.312;9.244;2022-09-30T14:58:36;14.20;99.90
3940;DHT22;1984;48.312;9.244;2022-09-30T15:01:14;14.30;99.90
3940;DHT22;1984;48.312;9.244;2022-09-30T15:03:44;14.30;99.90
3940;DHT22;1984;48.312;9.244;2022-09-30T15:06:20;14.20;99.90
3940;DHT22;1984;48.312;9.244;2022-09-30T15:08:47;14.10;99.90
3940;DHT22;1984;48.312;9.244;2022-09-30T15:11:23;14.00;99.90
3940;DHT22;1984;48.312;9.244;2022-09-30T15:13:58;13.90;99.90
3940;DHT22;1984;48.312;9.244;2022-09-30T15:16:26;13.80;99.90
3940;DHT22;1984;48.312;9.244;2022-09-30T15:18:52;13.80;99.90
3940;DHT22;1984;48.312;9.244;2022-09-30T15:21:19;13.80;99.90
3940;DHT22;1984;48.312;9.244;2022-09-30T15:23:49;13.70;99.90
3940;DHT22;1984;48.312;9.244;2022-09-30T15:26:22;13.70;99.90
3940;DHT22;1984;48.312;9.244;2022-09-30T15:28:48;13.60;99.90
3940;DHT22;1984;48.312;9.244;2022-09-30T15:31:23;13.60;99.90
3940;DHT22;1984;48.312;9.244;2022-09-30T15:34:00;13.50;99.90
3940;DHT22;1984;48.312;9.244;2022-09-30T15:36:27;13.40;99.90
3940;DHT22;1984;48.312;9.244;2022-09-30T15:38:52;13.30;99.90
3940;DHT22;1984;48.312;9.244;2022-09-30T15:41:18;13.10;99.90
3940;DHT22;1984;48.312;9.244;2022-09-30T15:43:49;13.10;99.90
3940;DHT22;1984;48.312;9.244;2022-09-30T15:46:27;13.10;99.90
3940;DHT22;1984;48.312;9.244;2022-09-30T15:48:55;13.00;99.90
3940;DHT22;1984;48.312;9.244;2022-09-30T15:51:26;12.90;99.90
3940;DHT22;1984;48.312;9.244;2022-09-30T15:53:53;12.90;99.90
3940;DHT22;1984;48.312;9.244;2022-09-30T15:56:29;12.80;99.90
3940;DHT22;1984;48.312;9.244;2022-09-30T16:01:44;12.60;99.90
3940;DHT22;1984;48.312;9.244;2022-09-30T16:04:21;12.60;99.90
3940;DHT22;1984;48.312;9.244;2022-09-30T16:07:07;12.50;99.90
3940;DHT22;1984;48.312;9.244;2022-09-30T16:09:36;12.30;99.90
3940;DHT22;1984;48.312;9.244;2022-09-30T16:17:31;12.20;99.90
3940;DHT22;1984;48.312;9.244;2022-09-30T16:20:01;12.20;99.90
3940;DHT22;1984;48.312;9.244;2022-09-30T16:27:45;12.10;99.90
3940;DHT22;1984;48.312;9.244;2022-09-30T16:30:16;12.20;99.90
3940;DHT22;1984;48.312;9.244;2022-09-30T16:32:45;12.10;99.90
3940;DHT22;1984;48.312;9.244;2022-09-30T16:35:26;12.00;99.90
3940;DHT22;1984;48.312;9.244;2022-09-30T16:38:05;12.00;99.90
3940;DHT22;1984;48.312;9.244;2022-09-30T16:40:32;12.00;99.90
3940;DHT22;1984;48.312;9.244;2022-09-30T16:43:00;12.00;99.90
3940;DHT22;1984;48.312;9.244;2022-09-30T16:45:27;11.90;99.90
3940;DHT22;1984;48.312;9.244;2022-09-30T16:47:53;11.70;99.90
3940;DHT22;1984;48.312;9.244;2022-09-30T16:50:37;11.40;99.90
3940;DHT22;1984;48.312;9.244;2022-09-30T16:53:03;11.30;99.90
3940;DHT22;1984;48.312;9.244;2022-09-30T16:55:30;11.20;99.90
3940;DHT22;1984;48.312;9.244;2022-09-30T16:57:56;11.10;99.90
3940;DHT22;1984;48.312;9.244;2022-09-30T17:00:26;11.10;99.90
3940;DHT22;1984;48.312;9.244;2022-09-30T17:02:52;11.00;99.90
3940;DHT22;1984;48.312;9.244;2022-09-30T17:05:20;11.00;99.90
3940;DHT22;1984;48.312;9.244;2022-09-30T17:07:57;10.90;99.90
3940;DHT22;1984;48.312;9.244;2022-09-30T17:10:26;10.90;99.90
3940;DHT22;1984;48.312;9.244;2022-09-30T17:12:53;10.80;99.90
3940;DHT22;1984;48.312;9.244;2022-09-30T17:15:19;10.80;99.90
3940;DHT22;1984;48.312;9.244;2022-09-30T17:17:45;10.70;99.90
3940;DHT22;1984;48.312;9.244;2022-09-30T17:20:11;10.50;99.90
3940;DHT22;1984;48.312;9.244;2022-09-30T17:22:37;10.40;99.90
3940;DHT22;1984;48.312;9.244;2022-09-30T17:25:03;10.40;99.90
3940;DHT22;1984;48.312;9.244;2022-09-30T17:27:29;10.40;99.90
3940;DHT22;1984;48.312;9.244;2022-09-30T17:29:54;10.30;99.90
3940;DHT22;1984;48.312;9.244;2022-09-30T17:32:20;10.30;99.90
3940;DHT22;1984;48.312;9.244;2022-09-30T17:34:46;10.30;99.90
3940;DHT22;1984;48.312;9.244;2022-09-30T17:37:11;10.20;99.90
3940;DHT22;1984;48.312;9.244;2022-09-30T17:39:39;10.10;99.90
3940;DHT22;1984;48.312;9.244;2022-09-30T17:42:06;10.00;99.90
3940;DHT22;1984;48.312;9.244;2022-09-30T17:44:49;9.90;99.90
3940;DHT22;1984;48.312;9.244;2022-09-30T17:47:16;9.90;99.90
3940;DHT22;1984;48.312;9.244;2022-09-30T17:49:42;10.00;99.90
3940;DHT22;1984;48.312;9.244;2022-09-30T17:52:07;9.90;99.90
3940;DHT22;1984;48.312;9.244;2022-09-30T17:54:33;9.90;99.90
3940;DHT22;1984;48.312;9.244;2022-09-30T17:56:59;9.90;99.90
3940;DHT22;1984;48.312;9.244;2022-09-30T17:59:25;9.90;99.90
3940;DHT22;1984;48.312;9.244;2022-09-30T18:01:52;9.90;99.90
3940;DHT22;1984;48.312;9.244;2022-09-30T18:04:20;9.90;99.90
3940;DHT22;1984;48.312;9.244;2022-09-30T18:06:46;9.80;99.90
3940;DHT22;1984;48.312;9.244;2022-09-30T18:09:12;9.70;99.90
3940;DHT22;1984;48.312;9.244;2022-09-30T18:11:38;9.60;99.90
3940;DHT22;1984;48.312;9.244;2022-09-30T18:14:03;9.40;99.90
3940;DHT22;1984;48.312;9.244;2022-09-30T18:16:30;9.30;99.90
3940;DHT22;1984;48.312;9.244;2022-09-30T18:18:59;9.10;99.90
3940;DHT22;1984;48.312;9.244;2022-09-30T18:21:25;9.00;99.90
3940;DHT22;1984;48.312;9.244;2022-09-30T18:23:51;8.90;99.90
3940;DHT22;1984;48.312;9.244;2022-09-30T18:26:17;8.90;99.90
3940;DHT22;1984;48.312;9.244;2022-09-30T18:28:43;8.90;99.90
3940;DHT22;1984;48.312;9.244;2022-09-30T18:31:09;9.00;99.90
3940;DHT22;1984;48.312;9.244;2022-09-30T18:33:35;9.00;99.90
3940;DHT22;1984;48.312;9.244;2022-09-30T18:36:04;8.90;99.90
3940;DHT22;1984;48.312;9.244;2022-09-30T18:38:32;8.90;99.90
3940;DHT22;1984;48.312;9.244;2022-09-30T18:40:58;8.90;99.90
3940;DHT22;1984;48.312;9.244;2022-09-30T18:43:23;8.80;99.90
3940;DHT22;1984;48.312;9.244;2022-09-30T18:45:54;8.80;99.90
3940;DHT22;1984;48.312;9.244;2022-09-30T18:48:21;8.80;99.90
3940;DHT22;1984;48.312;9.244;2022-09-30T18:50:47;8.80;99.90
3940;DHT22;1984;48.312;9.244;2022-09-30T18:53:17;8.80;99.90
3940;DHT22;1984;48.312;9.244;2022-09-30T18:55:42;8.70;99.90
3940;DHT22;1984;48.312;9.244;2022-09-30T18:58:08;8.70;99.90
3940;DHT22;1984;48.312;9.244;2022-09-30T19:00:34;8.70;99.90
3940;DHT22;1984;48.312;9.244;2022-09-30T19:03:00;8.70;99.90
3940;DHT22;1984;48.312;9.244;2022-09-30T19:05:25;8.70;99.90
3940;DHT22;1984;48.312;9.244;2022-09-30T19:07:52;8.60;99.90
3940;DHT22;1984;48.312;9.244;2022-09-30T19:10:18;8.60;99.90
3940;DHT22;1984;48.312;9.244;2022-09-30T19:12:43;8.60;99.90
3940;DHT22;1984;48.312;9.244;2022-09-30T19:15:11;8.60;99.90
3940;DHT22;1984;48.312;9.244;2022-09-30T19:17:37;8.50;99.90
3940;DHT22;1984;48.312;9.244;2022-09-30T19:20:04;8.50;99.90
3940;DHT22;1984;48.312;9.244;2022-09-30T19:22:31;8.50;99.90
3940;DHT22;1984;48.312;9.244;2022-09-30T19:25:04;8.50;99.90
3940;DHT22;1984;48.312;9.244;2022-09-30T19:27:31;8.50;99.90
3940;DHT22;1984;48.312;9.244;2022-09-30T19:29:57;8.40;99.90
3940;DHT22;1984;48.312;9.244;2022-09-30T19:32:23;8.40;99.90
3940;DHT22;1984;48.312;9.244;2022-09-30T19:34:50;8.40;99.90
3940;DHT22;1984;48.312;9.244;2022-09-30T19:37:18;8.30;99.90
3940;DHT22;1984;48.312;9.244;2022-09-30T19:39:44;8.30;99.90
3940;DHT22;1984;48.312;9.244;2022-09-30T19:42:10;8.30;99.90
3940;DHT22;1984;48.312;9.244;2022-09-30T19:44:38;8.20;99.90